sensor_id;sensor_type;location;lat;lon;timestamp;P1;durP1;ratioP1;P2;durP2;ratioP2
66139;SDS011;52945;51.908;8.364;2023-03-25T00:00:19;0.70;;;0.60;;
66139;SDS011;52945;51.908;8.364;2023-03-25T00:03:20;0.70;;;0.70;;
66139;SDS011;52945;51.908;8.364;2023-03-25T00:06:21;1.55;;;0.65;;
66139;SDS011;52945;51.908;8.364;2023-03-25T00:09:22;1.95;;;0.85;;
66139;SDS011;52945;51.908;8.364;2023-03-25T00:12:22;3.42;;;0.70;;
66139;SDS011;52945;51.908;8.364;2023-03-25T00:15:23;0.82;;;0.60;;
66139;SDS011;52945;51.908;8.364;2023-03-25T00:18:24;1.55;;;0.43;;
66139;SDS011;52945;51.908;8.364;2023-03-25T00:21:28;0.98;;;0.50;;
66139;SDS011;52945;51.908;8.364;2023-03-25T00:24:28;1.70;;;0.50;;
66139;SDS011;52945;51.908;8.364;2023-03-25T00:27:29;3.80;;;0.70;;
66139;SDS011;52945;51.908;8.364;2023-03-25T00:30:30;2.45;;;0.63;;
66139;SDS011;52945;51.908;8.364;2023-03-25T00:33:30;0.98;;;0.60;;
66139;SDS011;52945;51.908;8.364;2023-03-25T00:36:32;0.98;;;0.80;;
66139;SDS011;52945;51.908;8.364;2023-03-25T00:39:36;1.70;;;0.70;;
66139;SDS011;52945;51.908;8.364;2023-03-25T00:42:37;1.42;;;0.60;;
66139;SDS011;52945;51.908;8.364;2023-03-25T00:45:43;2.92;;;0.73;;
66139;SDS011;52945;51.908;8.364;2023-03-25T00:48:44;1.70;;;0.82;;
66139;SDS011;52945;51.908;8.364;2023-03-25T00:51:44;0.93;;;0.77;;
66139;SDS011;52945;51.908;8.364;2023-03-25T00:54:45;1.77;;;0.88;;
66139;SDS011;52945;51.908;8.364;2023-03-25T00:57:45;1.50;;;0.90;;
66139;SDS011;52945;51.908;8.364;2023-03-25T01:00:47;1.73;;;1.15;;
66139;SDS011;52945;51.908;8.364;2023-03-25T01:03:49;1.48;;;0.80;;
66139;SDS011;52945;51.908;8.364;2023-03-25T01:06:56;3.40;;;1.00;;
66139;SDS011;52945;51.908;8.364;2023-03-25T01:09:58;1.63;;;1.00;;
66139;SDS011;52945;51.908;8.364;2023-03-25T01:12:59;1.77;;;0.70;;
66139;SDS011;52945;51.908;8.364;2023-03-25T01:15:59;0.60;;;0.60;;
66139;SDS011;52945;51.908;8.364;2023-03-25T01:19:00;0.65;;;0.65;;
66139;SDS011;52945;51.908;8.364;2023-03-25T01:22:00;1.10;;;1.00;;
66139;SDS011;52945;51.908;8.364;2023-03-25T01:25:01;3.13;;;0.80;;
66139;SDS011;52945;51.908;8.364;2023-03-25T01:28:02;3.72;;;0.85;;
66139;SDS011;52945;51.908;8.364;2023-03-25T01:31:04;0.70;;;0.70;;
66139;SDS011;52945;51.908;8.364;2023-03-25T01:34:06;1.25;;;0.93;;
66139;SDS011;52945;51.908;8.364;2023-03-25T01:37:10;2.08;;;0.98;;
66139;SDS011;52945;51.908;8.364;2023-03-25T01:40:15;3.20;;;0.90;;
66139;SDS011;52945;51.908;8.364;2023-03-25T01:43:18;1.83;;;1.10;;
66139;SDS011;52945;51.908;8.364;2023-03-25T01:46:20;3.03;;;0.90;;
66139;SDS011;52945;51.908;8.364;2023-03-25T01:49:24;1.27;;;0.80;;
66139;SDS011;52945;51.908;8.364;2023-03-25T01:52:37;1.20;;;0.77;;
66139;SDS011;52945;51.908;8.364;2023-03-25T01:55:38;3.00;;;0.88;;
66139;SDS011;52945;51.908;8.364;2023-03-25T01:58:39;1.20;;;1.05;;
66139;SDS011;52945;51.908;8.364;2023-03-25T02:01:40;3.13;;;0.60;;
66139;SDS011;52945;51.908;8.364;2023-03-25T02:04:50;3.13;;;1.23;;
66139;SDS011;52945;51.908;8.364;2023-03-25T02:07:57;2.33;;;0.82;;
66139;SDS011;52945;51.908;8.364;2023-03-25T02:11:02;2.53;;;1.08;;
66139;SDS011;52945;51.908;8.364;2023-03-25T02:14:18;1.08;;;0.73;;
66139;SDS011;52945;51.908;8.364;2023-03-25T02:27:57;0.70;;;0.70;;
66139;SDS011;52945;51.908;8.364;2023-03-25T02:38:17;3.75;;;0.90;;
66139;SDS011;52945;51.908;8.364;2023-03-25T02:41:58;6.05;;;0.93;;
66139;SDS011;52945;51.908;8.364;2023-03-25T02:45:01;2.20;;;0.90;;
66139;SDS011;52945;51.908;8.364;2023-03-25T02:48:15;2.67;;;0.98;;
66139;SDS011;52945;51.908;8.364;2023-03-25T02:51:26;4.60;;;1.40;;
66139;SDS011;52945;51.908;8.364;2023-03-25T02:54:29;2.60;;;1.17;;
66139;SDS011;52945;51.908;8.364;2023-03-25T02:57:33;2.53;;;1.10;;
66139;SDS011;52945;51.908;8.364;2023-03-25T03:00:37;3.38;;;1.10;;
66139;SDS011;52945;51.908;8.364;2023-03-25T03:03:39;3.72;;;1.38;;
66139;SDS011;52945;51.908;8.364;2023-03-25T03:06:40;3.05;;;1.17;;
66139;SDS011;52945;51.908;8.364;2023-03-25T03:09:44;3.15;;;1.17;;
66139;SDS011;52945;51.908;8.364;2023-03-25T03:16:06;4.55;;;1.20;;
66139;SDS011;52945;51.908;8.364;2023-03-25T03:22:46;2.90;;;1.42;;
66139;SDS011;52945;51.908;8.364;2023-03-25T03:26:16;3.55;;;1.08;;
66139;SDS011;52945;51.908;8.364;2023-03-25T03:29:51;3.08;;;0.93;;
66139;SDS011;52945;51.908;8.364;2023-03-25T03:33:00;1.25;;;1.15;;
66139;SDS011;52945;51.908;8.364;2023-03-25T03:36:04;2.10;;;0.88;;
66139;SDS011;52945;51.908;8.364;2023-03-25T03:39:10;2.53;;;1.10;;
66139;SDS011;52945;51.908;8.364;2023-03-25T03:45:30;2.88;;;0.80;;
66139;SDS011;52945;51.908;8.364;2023-03-25T03:48:37;0.95;;;0.63;;
66139;SDS011;52945;51.908;8.364;2023-03-25T03:51:42;3.75;;;0.93;;
66139;SDS011;52945;51.908;8.364;2023-03-25T03:54:59;2.55;;;0.70;;
66139;SDS011;52945;51.908;8.364;2023-03-25T03:58:05;4.78;;;0.90;;
66139;SDS011;52945;51.908;8.364;2023-03-25T04:04:32;1.95;;;0.93;;
66139;SDS011;52945;51.908;8.364;2023-03-25T04:07:44;1.65;;;0.73;;
66139;SDS011;52945;51.908;8.364;2023-03-25T04:11:11;2.42;;;1.20;;
66139;SDS011;52945;51.908;8.364;2023-03-25T04:14:19;3.10;;;0.82;;
66139;SDS011;52945;51.908;8.364;2023-03-25T04:17:20;2.38;;;1.02;;
66139;SDS011;52945;51.908;8.364;2023-03-25T04:20:24;0.95;;;0.70;;
66139;SDS011;52945;51.908;8.364;2023-03-25T04:23:28;1.33;;;0.75;;
66139;SDS011;52945;51.908;8.364;2023-03-25T04:26:29;1.23;;;0.73;;
66139;SDS011;52945;51.908;8.364;2023-03-25T04:29:32;1.75;;;0.82;;
66139;SDS011;52945;51.908;8.364;2023-03-25T04:32:33;1.90;;;1.33;;
66139;SDS011;52945;51.908;8.364;2023-03-25T04:35:33;3.42;;;1.10;;
66139;SDS011;52945;51.908;8.364;2023-03-25T04:38:34;2.55;;;0.82;;
66139;SDS011;52945;51.908;8.364;2023-03-25T04:41:37;4.22;;;1.00;;
66139;SDS011;52945;51.908;8.364;2023-03-25T04:44:38;2.13;;;1.10;;
66139;SDS011;52945;51.908;8.364;2023-03-25T04:47:38;1.70;;;0.95;;
66139;SDS011;52945;51.908;8.364;2023-03-25T04:50:45;2.00;;;0.98;;
66139;SDS011;52945;51.908;8.364;2023-03-25T04:53:47;4.07;;;1.20;;
66139;SDS011;52945;51.908;8.364;2023-03-25T04:56:47;1.42;;;1.00;;
66139;SDS011;52945;51.908;8.364;2023-03-25T04:59:50;1.98;;;1.17;;
66139;SDS011;52945;51.908;8.364;2023-03-25T05:02:51;1.63;;;0.93;;
66139;SDS011;52945;51.908;8.364;2023-03-25T05:05:53;0.85;;;0.80;;
66139;SDS011;52945;51.908;8.364;2023-03-25T05:11:55;2.60;;;0.90;;
66139;SDS011;52945;51.908;8.364;2023-03-25T05:14:56;1.13;;;1.00;;
66139;SDS011;52945;51.908;8.364;2023-03-25T05:17:57;1.10;;;0.98;;
66139;SDS011;52945;51.908;8.364;2023-03-25T05:20:58;1.55;;;1.10;;
66139;SDS011;52945;51.908;8.364;2023-03-25T05:24:02;3.05;;;1.20;;
66139;SDS011;52945;51.908;8.364;2023-03-25T05:27:09;1.98;;;1.08;;
66139;SDS011;52945;51.908;8.364;2023-03-25T05:30:09;3.58;;;1.15;;
66139;SDS011;52945;51.908;8.364;2023-03-25T05:33:11;4.18;;;1.08;;
66139;SDS011;52945;51.908;8.364;2023-03-25T05:36:17;2.67;;;0.80;;
66139;SDS011;52945;51.908;8.364;2023-03-25T05:39:17;2.40;;;1.08;;
66139;SDS011;52945;51.908;8.364;2023-03-25T05:42:18;1.80;;;1.23;;
66139;SDS011;52945;51.908;8.364;2023-03-25T05:45:21;1.45;;;0.63;;
66139;SDS011;52945;51.908;8.364;2023-03-25T05:48:22;2.45;;;1.27;;
66139;SDS011;52945;51.908;8.364;2023-03-25T05:51:24;3.17;;;1.00;;
66139;SDS011;52945;51.908;8.364;2023-03-25T05:54:25;1.33;;;0.80;;
66139;SDS011;52945;51.908;8.364;2023-03-25T05:57:27;2.15;;;0.80;;
66139;SDS011;52945;51.908;8.364;2023-03-25T06:00:28;1.67;;;0.93;;
66139;SDS011;52945;51.908;8.364;2023-03-25T06:03:29;1.75;;;0.95;;
66139;SDS011;52945;51.908;8.364;2023-03-25T06:06:33;3.45;;;0.82;;
66139;SDS011;52945;51.908;8.364;2023-03-25T06:09:34;2.65;;;1.02;;
66139;SDS011;52945;51.908;8.364;2023-03-25T06:12:35;4.13;;;0.82;;
66139;SDS011;52945;51.908;8.364;2023-03-25T06:15:37;2.08;;;0.85;;
66139;SDS011;52945;51.908;8.364;2023-03-25T06:18:40;3.35;;;0.80;;
66139;SDS011;52945;51.908;8.364;2023-03-25T06:21:41;3.55;;;1.10;;
66139;SDS011;52945;51.908;8.364;2023-03-25T06:24:42;3.25;;;1.10;;
66139;SDS011;52945;51.908;8.364;2023-03-25T06:27:43;2.55;;;0.88;;
66139;SDS011;52945;51.908;8.364;2023-03-25T06:30:45;1.08;;;0.90;;
66139;SDS011;52945;51.908;8.364;2023-03-25T06:33:46;3.05;;;0.80;;
66139;SDS011;52945;51.908;8.364;2023-03-25T06:36:48;2.22;;;0.95;;
66139;SDS011;52945;51.908;8.364;2023-03-25T06:39:49;1.63;;;1.42;;
66139;SDS011;52945;51.908;8.364;2023-03-25T06:42:49;2.65;;;0.77;;
66139;SDS011;52945;51.908;8.364;2023-03-25T06:45:50;8.75;;;0.80;;
66139;SDS011;52945;51.908;8.364;2023-03-25T06:48:50;1.70;;;1.15;;
66139;SDS011;52945;51.908;8.364;2023-03-25T06:51:51;4.20;;;0.85;;
66139;SDS011;52945;51.908;8.364;2023-03-25T06:54:52;2.90;;;0.90;;
66139;SDS011;52945;51.908;8.364;2023-03-25T06:57:55;3.17;;;0.80;;
66139;SDS011;52945;51.908;8.364;2023-03-25T07:00:56;1.48;;;0.75;;
66139;SDS011;52945;51.908;8.364;2023-03-25T07:03:56;2.88;;;1.02;;
66139;SDS011;52945;51.908;8.364;2023-03-25T07:06:57;2.05;;;1.10;;
66139;SDS011;52945;51.908;8.364;2023-03-25T07:09:58;0.82;;;0.82;;
66139;SDS011;52945;51.908;8.364;2023-03-25T07:12:58;0.95;;;0.75;;
66139;SDS011;52945;51.908;8.364;2023-03-25T07:15:59;1.92;;;1.30;;
66139;SDS011;52945;51.908;8.364;2023-03-25T07:19:00;3.75;;;1.33;;
66139;SDS011;52945;51.908;8.364;2023-03-25T07:22:00;3.72;;;1.10;;
66139;SDS011;52945;51.908;8.364;2023-03-25T07:25:01;3.83;;;1.02;;
66139;SDS011;52945;51.908;8.364;2023-03-25T07:28:02;1.42;;;0.93;;
66139;SDS011;52945;51.908;8.364;2023-03-25T07:31:04;3.70;;;1.05;;
66139;SDS011;52945;51.908;8.364;2023-03-25T07:34:09;4.53;;;1.13;;
66139;SDS011;52945;51.908;8.364;2023-03-25T07:37:10;1.95;;;1.10;;
66139;SDS011;52945;51.908;8.364;2023-03-25T07:40:11;1.88;;;1.35;;
66139;SDS011;52945;51.908;8.364;2023-03-25T07:43:11;5.90;;;1.10;;
66139;SDS011;52945;51.908;8.364;2023-03-25T07:46:12;5.53;;;1.20;;
66139;SDS011;52945;51.908;8.364;2023-03-25T07:49:13;2.15;;;1.10;;
66139;SDS011;52945;51.908;8.364;2023-03-25T07:52:15;2.92;;;1.27;;
66139;SDS011;52945;51.908;8.364;2023-03-25T07:55:15;2.17;;;1.13;;
66139;SDS011;52945;51.908;8.364;2023-03-25T07:58:17;2.88;;;1.33;;
66139;SDS011;52945;51.908;8.364;2023-03-25T08:01:18;2.53;;;1.08;;
66139;SDS011;52945;51.908;8.364;2023-03-25T08:04:18;2.63;;;1.30;;
66139;SDS011;52945;51.908;8.364;2023-03-25T08:07:19;2.00;;;1.10;;
66139;SDS011;52945;51.908;8.364;2023-03-25T08:10:20;2.78;;;1.10;;
66139;SDS011;52945;51.908;8.364;2023-03-25T08:13:21;5.22;;;1.20;;
66139;SDS011;52945;51.908;8.364;2023-03-25T08:16:21;1.83;;;1.35;;
66139;SDS011;52945;51.908;8.364;2023-03-25T08:19:22;2.72;;;1.40;;
66139;SDS011;52945;51.908;8.364;2023-03-25T08:22:23;3.80;;;1.35;;
66139;SDS011;52945;51.908;8.364;2023-03-25T08:25:23;2.55;;;1.17;;
66139;SDS011;52945;51.908;8.364;2023-03-25T08:28:24;5.97;;;1.13;;
66139;SDS011;52945;51.908;8.364;2023-03-25T08:31:26;2.92;;;1.42;;
66139;SDS011;52945;51.908;8.364;2023-03-25T08:34:29;2.72;;;1.35;;
66139;SDS011;52945;51.908;8.364;2023-03-25T08:37:33;4.10;;;1.02;;
66139;SDS011;52945;51.908;8.364;2023-03-25T08:40:34;4.78;;;1.45;;
66139;SDS011;52945;51.908;8.364;2023-03-25T08:43:35;1.63;;;1.20;;
66139;SDS011;52945;51.908;8.364;2023-03-25T08:46:36;4.10;;;1.63;;
66139;SDS011;52945;51.908;8.364;2023-03-25T08:49:37;4.25;;;1.25;;
66139;SDS011;52945;51.908;8.364;2023-03-25T08:52:37;5.57;;;1.70;;
66139;SDS011;52945;51.908;8.364;2023-03-25T08:55:38;3.28;;;1.38;;
66139;SDS011;52945;51.908;8.364;2023-03-25T08:58:38;3.72;;;1.63;;
66139;SDS011;52945;51.908;8.364;2023-03-25T09:01:39;4.18;;;1.80;;
66139;SDS011;52945;51.908;8.364;2023-03-25T09:04:42;6.88;;;2.42;;
66139;SDS011;52945;51.908;8.364;2023-03-25T09:07:43;2.92;;;1.63;;
66139;SDS011;52945;51.908;8.364;2023-03-25T09:10:43;5.15;;;1.83;;
66139;SDS011;52945;51.908;8.364;2023-03-25T09:13:44;4.72;;;1.80;;
66139;SDS011;52945;51.908;8.364;2023-03-25T09:16:44;5.68;;;1.67;;
66139;SDS011;52945;51.908;8.364;2023-03-25T09:19:45;7.68;;;1.60;;
66139;SDS011;52945;51.908;8.364;2023-03-25T09:22:46;7.85;;;1.95;;
66139;SDS011;52945;51.908;8.364;2023-03-25T09:25:47;2.47;;;1.38;;
66139;SDS011;52945;51.908;8.364;2023-03-25T09:28:48;2.28;;;1.50;;
66139;SDS011;52945;51.908;8.364;2023-03-25T09:31:48;1.88;;;1.08;;
66139;SDS011;52945;51.908;8.364;2023-03-25T09:34:49;5.90;;;1.30;;
66139;SDS011;52945;51.908;8.364;2023-03-25T09:37:50;2.60;;;1.15;;
66139;SDS011;52945;51.908;8.364;2023-03-25T09:40:50;5.20;;;1.58;;
66139;SDS011;52945;51.908;8.364;2023-03-25T09:47:27;3.08;;;1.40;;
66139;SDS011;52945;51.908;8.364;2023-03-25T09:50:32;4.78;;;1.50;;
66139;SDS011;52945;51.908;8.364;2023-03-25T09:53:36;2.13;;;1.75;;
66139;SDS011;52945;51.908;8.364;2023-03-25T09:56:50;5.95;;;1.60;;
66139;SDS011;52945;51.908;8.364;2023-03-25T09:59:56;4.07;;;1.63;;
66139;SDS011;52945;51.908;8.364;2023-03-25T10:06:17;2.05;;;1.30;;
66139;SDS011;52945;51.908;8.364;2023-03-25T10:09:26;2.70;;;1.38;;
66139;SDS011;52945;51.908;8.364;2023-03-25T10:12:43;8.77;;;1.60;;
66139;SDS011;52945;51.908;8.364;2023-03-25T10:19:14;6.45;;;1.45;;
66139;SDS011;52945;51.908;8.364;2023-03-25T10:25:36;2.88;;;1.95;;
66139;SDS011;52945;51.908;8.364;2023-03-25T10:28:44;5.45;;;1.80;;
66139;SDS011;52945;51.908;8.364;2023-03-25T10:38:38;6.35;;;1.80;;
66139;SDS011;52945;51.908;8.364;2023-03-25T10:41:40;2.50;;;1.60;;
66139;SDS011;52945;51.908;8.364;2023-03-25T10:47:43;3.65;;;1.70;;
66139;SDS011;52945;51.908;8.364;2023-03-25T10:50:45;3.38;;;1.52;;
66139;SDS011;52945;51.908;8.364;2023-03-25T10:53:49;3.15;;;1.42;;
66139;SDS011;52945;51.908;8.364;2023-03-25T10:56:52;4.75;;;1.63;;
66139;SDS011;52945;51.908;8.364;2023-03-25T11:00:05;5.43;;;1.73;;
66139;SDS011;52945;51.908;8.364;2023-03-25T11:03:19;5.18;;;1.52;;
66139;SDS011;52945;51.908;8.364;2023-03-25T11:06:26;4.72;;;2.00;;
66139;SDS011;52945;51.908;8.364;2023-03-25T11:09:29;3.30;;;1.70;;
66139;SDS011;52945;51.908;8.364;2023-03-25T11:12:31;3.53;;;1.52;;
66139;SDS011;52945;51.908;8.364;2023-03-25T11:15:33;5.38;;;1.70;;
66139;SDS011;52945;51.908;8.364;2023-03-25T11:18:38;2.97;;;1.75;;
66139;SDS011;52945;51.908;8.364;2023-03-25T11:21:39;4.65;;;1.90;;
66139;SDS011;52945;51.908;8.364;2023-03-25T11:24:46;7.50;;;2.25;;
66139;SDS011;52945;51.908;8.364;2023-03-25T11:27:57;2.13;;;1.40;;
66139;SDS011;52945;51.908;8.364;2023-03-25T11:34:19;3.38;;;1.30;;
66139;SDS011;52945;51.908;8.364;2023-03-25T11:37:26;5.10;;;1.90;;
66139;SDS011;52945;51.908;8.364;2023-03-25T11:40:31;2.67;;;1.30;;
66139;SDS011;52945;51.908;8.364;2023-03-25T11:43:34;7.47;;;1.52;;
66139;SDS011;52945;51.908;8.364;2023-03-25T11:46:40;3.50;;;1.40;;
66139;SDS011;52945;51.908;8.364;2023-03-25T11:49:42;3.13;;;1.50;;
66139;SDS011;52945;51.908;8.364;2023-03-25T11:52:48;3.70;;;1.40;;
66139;SDS011;52945;51.908;8.364;2023-03-25T11:56:00;4.13;;;1.60;;
66139;SDS011;52945;51.908;8.364;2023-03-25T11:59:06;5.50;;;1.90;;
66139;SDS011;52945;51.908;8.364;2023-03-25T12:02:57;2.85;;;1.40;;
66139;SDS011;52945;51.908;8.364;2023-03-25T12:05:39;5.47;;;1.80;;
66139;SDS011;52945;51.908;8.364;2023-03-25T12:08:42;6.05;;;1.90;;
66139;SDS011;52945;51.908;8.364;2023-03-25T12:11:56;3.15;;;2.17;;
66139;SDS011;52945;51.908;8.364;2023-03-25T12:38:48;6.28;;;1.33;;
66139;SDS011;52945;51.908;8.364;2023-03-25T12:45:51;3.75;;;1.20;;
66139;SDS011;52945;51.908;8.364;2023-03-25T12:49:06;4.15;;;1.38;;
66139;SDS011;52945;51.908;8.364;2023-03-25T13:02:19;3.40;;;1.10;;
66139;SDS011;52945;51.908;8.364;2023-03-25T13:05:49;3.45;;;1.40;;
66139;SDS011;52945;51.908;8.364;2023-03-25T13:08:53;4.10;;;1.20;;
66139;SDS011;52945;51.908;8.364;2023-03-25T13:15:39;3.75;;;1.60;;
66139;SDS011;52945;51.908;8.364;2023-03-25T13:18:46;5.22;;;2.13;;
66139;SDS011;52945;51.908;8.364;2023-03-25T13:22:04;4.63;;;1.70;;
66139;SDS011;52945;51.908;8.364;2023-03-25T13:25:46;4.60;;;2.08;;
66139;SDS011;52945;51.908;8.364;2023-03-25T13:28:49;4.15;;;1.42;;
66139;SDS011;52945;51.908;8.364;2023-03-25T13:32:21;6.43;;;1.55;;
66139;SDS011;52945;51.908;8.364;2023-03-25T13:39:18;2.60;;;1.38;;
66139;SDS011;52945;51.908;8.364;2023-03-25T13:42:37;6.88;;;1.75;;
66139;SDS011;52945;51.908;8.364;2023-03-25T13:45:51;2.78;;;1.25;;
66139;SDS011;52945;51.908;8.364;2023-03-25T13:49:06;2.85;;;1.27;;
66139;SDS011;52945;51.908;8.364;2023-03-25T13:52:12;3.08;;;1.40;;
66139;SDS011;52945;51.908;8.364;2023-03-25T13:55:18;5.57;;;1.75;;
66139;SDS011;52945;51.908;8.364;2023-03-25T14:01:56;2.13;;;1.50;;
66139;SDS011;52945;51.908;8.364;2023-03-25T14:12:34;4.30;;;1.40;;
66139;SDS011;52945;51.908;8.364;2023-03-25T14:15:45;2.38;;;1.10;;
66139;SDS011;52945;51.908;8.364;2023-03-25T14:19:02;4.82;;;1.40;;
66139;SDS011;52945;51.908;8.364;2023-03-25T14:22:12;4.57;;;1.25;;
66139;SDS011;52945;51.908;8.364;2023-03-25T14:25:21;4.13;;;1.48;;
66139;SDS011;52945;51.908;8.364;2023-03-25T14:28:33;3.45;;;1.60;;
66139;SDS011;52945;51.908;8.364;2023-03-25T14:31:57;3.05;;;1.40;;
66139;SDS011;52945;51.908;8.364;2023-03-25T14:38:48;4.82;;;1.80;;
66139;SDS011;52945;51.908;8.364;2023-03-25T14:48:35;5.55;;;1.70;;
66139;SDS011;52945;51.908;8.364;2023-03-25T14:51:44;9.13;;;1.80;;
66139;SDS011;52945;51.908;8.364;2023-03-25T14:54:50;6.07;;;1.90;;
66139;SDS011;52945;51.908;8.364;2023-03-25T14:58:02;7.68;;;1.80;;
66139;SDS011;52945;51.908;8.364;2023-03-25T15:01:13;6.43;;;1.77;;
66139;SDS011;52945;51.908;8.364;2023-03-25T15:07:18;4.03;;;1.48;;
66139;SDS011;52945;51.908;8.364;2023-03-25T15:10:47;3.58;;;1.70;;
66139;SDS011;52945;51.908;8.364;2023-03-25T15:13:50;1.60;;;1.25;;
66139;SDS011;52945;51.908;8.364;2023-03-25T15:17:02;3.35;;;1.60;;
66139;SDS011;52945;51.908;8.364;2023-03-25T15:26:33;2.92;;;1.65;;
66139;SDS011;52945;51.908;8.364;2023-03-25T15:29:41;3.70;;;1.75;;
66139;SDS011;52945;51.908;8.364;2023-03-25T15:40:09;3.63;;;1.13;;
66139;SDS011;52945;51.908;8.364;2023-03-25T15:50:02;1.40;;;0.98;;
66139;SDS011;52945;51.908;8.364;2023-03-25T15:56:36;4.43;;;1.33;;
66139;SDS011;52945;51.908;8.364;2023-03-25T16:03:13;2.53;;;1.27;;
66139;SDS011;52945;51.908;8.364;2023-03-25T16:06:18;3.35;;;1.30;;
66139;SDS011;52945;51.908;8.364;2023-03-25T16:09:21;3.22;;;1.17;;
66139;SDS011;52945;51.908;8.364;2023-03-25T16:12:25;2.42;;;1.20;;
66139;SDS011;52945;51.908;8.364;2023-03-25T16:15:29;2.90;;;1.38;;
66139;SDS011;52945;51.908;8.364;2023-03-25T16:18:32;3.97;;;1.10;;
66139;SDS011;52945;51.908;8.364;2023-03-25T16:21:32;4.40;;;1.42;;
66139;SDS011;52945;51.908;8.364;2023-03-25T16:24:33;3.58;;;1.90;;
66139;SDS011;52945;51.908;8.364;2023-03-25T16:30:37;5.25;;;1.48;;
66139;SDS011;52945;51.908;8.364;2023-03-25T16:33:41;4.78;;;1.52;;
66139;SDS011;52945;51.908;8.364;2023-03-25T16:36:44;2.22;;;1.15;;
66139;SDS011;52945;51.908;8.364;2023-03-25T16:39:53;3.35;;;1.42;;
66139;SDS011;52945;51.908;8.364;2023-03-25T16:43:02;1.13;;;0.82;;
66139;SDS011;52945;51.908;8.364;2023-03-25T16:46:04;5.30;;;1.25;;
66139;SDS011;52945;51.908;8.364;2023-03-25T16:49:08;1.70;;;1.00;;
66139;SDS011;52945;51.908;8.364;2023-03-25T16:52:15;7.13;;;1.20;;
66139;SDS011;52945;51.908;8.364;2023-03-25T16:56:03;2.60;;;0.90;;
66139;SDS011;52945;51.908;8.364;2023-03-25T17:02:10;7.75;;;1.45;;
66139;SDS011;52945;51.908;8.364;2023-03-25T17:05:27;2.58;;;1.00;;
66139;SDS011;52945;51.908;8.364;2023-03-25T17:08:28;1.83;;;1.30;;
66139;SDS011;52945;51.908;8.364;2023-03-25T17:11:30;2.63;;;1.40;;
66139;SDS011;52945;51.908;8.364;2023-03-25T17:14:35;1.77;;;0.98;;
66139;SDS011;52945;51.908;8.364;2023-03-25T17:17:46;1.85;;;1.30;;
66139;SDS011;52945;51.908;8.364;2023-03-25T17:20:50;2.67;;;1.30;;
66139;SDS011;52945;51.908;8.364;2023-03-25T17:23:58;7.70;;;1.60;;
66139;SDS011;52945;51.908;8.364;2023-03-25T17:27:17;2.70;;;1.10;;
66139;SDS011;52945;51.908;8.364;2023-03-25T17:36:33;1.52;;;1.20;;
66139;SDS011;52945;51.908;8.364;2023-03-25T17:39:36;3.83;;;1.40;;
66139;SDS011;52945;51.908;8.364;2023-03-25T17:42:37;4.80;;;1.50;;
66139;SDS011;52945;51.908;8.364;2023-03-25T17:45:39;4.60;;;1.42;;
66139;SDS011;52945;51.908;8.364;2023-03-25T17:48:40;4.30;;;1.48;;
66139;SDS011;52945;51.908;8.364;2023-03-25T17:51:41;2.45;;;1.15;;
66139;SDS011;52945;51.908;8.364;2023-03-25T17:54:42;2.33;;;0.75;;
66139;SDS011;52945;51.908;8.364;2023-03-25T17:57:43;1.58;;;0.90;;
66139;SDS011;52945;51.908;8.364;2023-03-25T18:00:44;3.55;;;1.00;;
66139;SDS011;52945;51.908;8.364;2023-03-25T18:03:45;0.60;;;0.60;;
66139;SDS011;52945;51.908;8.364;2023-03-25T18:06:46;2.53;;;0.93;;
66139;SDS011;52945;51.908;8.364;2023-03-25T18:09:46;1.85;;;0.95;;
66139;SDS011;52945;51.908;8.364;2023-03-25T18:12:47;2.47;;;0.80;;
66139;SDS011;52945;51.908;8.364;2023-03-25T18:15:48;1.05;;;0.95;;
66139;SDS011;52945;51.908;8.364;2023-03-25T18:18:50;0.82;;;0.70;;
66139;SDS011;52945;51.908;8.364;2023-03-25T18:21:51;0.50;;;0.50;;
66139;SDS011;52945;51.908;8.364;2023-03-25T18:24:51;1.02;;;0.70;;
66139;SDS011;52945;51.908;8.364;2023-03-25T18:27:53;1.05;;;0.60;;
66139;SDS011;52945;51.908;8.364;2023-03-25T18:30:56;4.22;;;1.25;;
66139;SDS011;52945;51.908;8.364;2023-03-25T18:33:58;1.20;;;0.77;;
66139;SDS011;52945;51.908;8.364;2023-03-25T18:36:59;1.58;;;0.77;;
66139;SDS011;52945;51.908;8.364;2023-03-25T18:40:00;0.95;;;0.80;;
66139;SDS011;52945;51.908;8.364;2023-03-25T18:43:00;2.08;;;1.00;;
66139;SDS011;52945;51.908;8.364;2023-03-25T18:46:03;2.65;;;0.90;;
66139;SDS011;52945;51.908;8.364;2023-03-25T18:49:04;1.30;;;1.20;;
66139;SDS011;52945;51.908;8.364;2023-03-25T18:52:11;1.35;;;0.73;;
66139;SDS011;52945;51.908;8.364;2023-03-25T18:55:12;6.75;;;0.82;;
66139;SDS011;52945;51.908;8.364;2023-03-25T18:58:23;1.95;;;0.85;;
66139;SDS011;52945;51.908;8.364;2023-03-25T19:01:25;2.35;;;0.88;;
66139;SDS011;52945;51.908;8.364;2023-03-25T19:04:26;2.53;;;1.40;;
66139;SDS011;52945;51.908;8.364;2023-03-25T19:07:26;2.45;;;1.00;;
66139;SDS011;52945;51.908;8.364;2023-03-25T19:10:28;1.20;;;0.90;;
66139;SDS011;52945;51.908;8.364;2023-03-25T19:13:30;4.75;;;1.30;;
66139;SDS011;52945;51.908;8.364;2023-03-25T19:16:31;2.33;;;0.95;;
66139;SDS011;52945;51.908;8.364;2023-03-25T19:19:31;3.25;;;1.48;;
66139;SDS011;52945;51.908;8.364;2023-03-25T19:22:32;1.17;;;0.75;;
66139;SDS011;52945;51.908;8.364;2023-03-25T19:25:32;1.23;;;1.02;;
66139;SDS011;52945;51.908;8.364;2023-03-25T19:28:33;1.15;;;0.57;;
66139;SDS011;52945;51.908;8.364;2023-03-25T19:31:34;3.10;;;1.00;;
66139;SDS011;52945;51.908;8.364;2023-03-25T19:34:34;1.63;;;0.88;;
66139;SDS011;52945;51.908;8.364;2023-03-25T19:37:35;1.90;;;0.85;;
66139;SDS011;52945;51.908;8.364;2023-03-25T19:40:37;3.67;;;0.90;;
66139;SDS011;52945;51.908;8.364;2023-03-25T19:43:37;1.20;;;0.85;;
66139;SDS011;52945;51.908;8.364;2023-03-25T19:46:38;1.17;;;1.15;;
66139;SDS011;52945;51.908;8.364;2023-03-25T19:49:39;2.53;;;0.93;;
66139;SDS011;52945;51.908;8.364;2023-03-25T19:52:40;1.17;;;0.73;;
66139;SDS011;52945;51.908;8.364;2023-03-25T19:55:41;2.30;;;0.77;;
66139;SDS011;52945;51.908;8.364;2023-03-25T19:58:42;1.10;;;0.70;;
66139;SDS011;52945;51.908;8.364;2023-03-25T20:01:43;0.95;;;0.80;;
66139;SDS011;52945;51.908;8.364;2023-03-25T20:04:43;1.67;;;1.20;;
66139;SDS011;52945;51.908;8.364;2023-03-25T20:07:44;2.80;;;1.10;;
66139;SDS011;52945;51.908;8.364;2023-03-25T20:10:45;2.58;;;0.88;;
66139;SDS011;52945;51.908;8.364;2023-03-25T20:13:46;4.18;;;1.15;;
66139;SDS011;52945;51.908;8.364;2023-03-25T20:16:48;5.97;;;1.30;;
66139;SDS011;52945;51.908;8.364;2023-03-25T20:19:48;1.50;;;0.95;;
66139;SDS011;52945;51.908;8.364;2023-03-25T20:22:49;2.75;;;1.30;;
66139;SDS011;52945;51.908;8.364;2023-03-25T20:25:50;2.38;;;1.10;;
66139;SDS011;52945;51.908;8.364;2023-03-25T20:28:51;1.05;;;0.80;;
66139;SDS011;52945;51.908;8.364;2023-03-25T20:31:52;4.13;;;0.88;;
66139;SDS011;52945;51.908;8.364;2023-03-25T20:34:53;1.20;;;0.90;;
66139;SDS011;52945;51.908;8.364;2023-03-25T20:37:53;3.15;;;0.90;;
66139;SDS011;52945;51.908;8.364;2023-03-25T20:40:54;2.25;;;1.00;;
66139;SDS011;52945;51.908;8.364;2023-03-25T20:43:55;2.17;;;0.90;;
66139;SDS011;52945;51.908;8.364;2023-03-25T20:46:55;2.22;;;0.93;;
66139;SDS011;52945;51.908;8.364;2023-03-25T20:49:56;2.08;;;0.63;;
66139;SDS011;52945;51.908;8.364;2023-03-25T20:52:57;1.73;;;0.85;;
66139;SDS011;52945;51.908;8.364;2023-03-25T20:55:58;2.67;;;1.00;;
66139;SDS011;52945;51.908;8.364;2023-03-25T20:59:00;1.98;;;1.02;;
66139;SDS011;52945;51.908;8.364;2023-03-25T21:02:00;5.38;;;1.35;;
66139;SDS011;52945;51.908;8.364;2023-03-25T21:05:02;3.17;;;1.05;;
66139;SDS011;52945;51.908;8.364;2023-03-25T21:08:04;2.47;;;1.00;;
66139;SDS011;52945;51.908;8.364;2023-03-25T21:11:05;1.00;;;1.00;;
66139;SDS011;52945;51.908;8.364;2023-03-25T21:14:06;3.63;;;1.13;;
66139;SDS011;52945;51.908;8.364;2023-03-25T21:17:07;2.80;;;1.10;;
66139;SDS011;52945;51.908;8.364;2023-03-25T21:20:08;2.10;;;0.98;;